sensor_id;sensor_type;location;lat;lon;timestamp;P1;durP1;ratioP1;P2;durP2;ratioP2
37997;SDS011;24079;51.824;4.682;2023-03-03T00:00:55;23.92;;;13.48;;
37997;SDS011;24079;51.824;4.682;2023-03-03T00:03:22;22.60;;;12.57;;
37997;SDS011;24079;51.824;4.682;2023-03-03T00:05:49;22.38;;;12.70;;
37997;SDS011;24079;51.824;4.682;2023-03-03T00:08:16;19.38;;;11.88;;
37997;SDS011;24079;51.824;4.682;2023-03-03T00:10:42;23.13;;;12.85;;
37997;SDS011;24079;51.824;4.682;2023-03-03T00:13:19;21.52;;;12.32;;
37997;SDS011;24079;51.824;4.682;2023-03-03T00:15:47;23.48;;;11.88;;
37997;SDS011;24079;51.824;4.682;2023-03-03T00:18:18;21.73;;;12.13;;
37997;SDS011;24079;51.824;4.682;2023-03-03T00:20:58;20.50;;;11.93;;
37997;SDS011;24079;51.824;4.682;2023-03-03T00:23:34;17.33;;;11.75;;
37997;SDS011;24079;51.824;4.682;2023-03-03T00:26:03;18.25;;;10.77;;
37997;SDS011;24079;51.824;4.682;2023-03-03T00:28:46;19.40;;;11.07;;
37997;SDS011;24079;51.824;4.682;2023-03-03T00:31:21;20.40;;;11.57;;
37997;SDS011;24079;51.824;4.682;2023-03-03T00:33:53;20.02;;;10.70;;
37997;SDS011;24079;51.824;4.682;2023-03-03T00:36:26;19.20;;;10.98;;
37997;SDS011;24079;51.824;4.682;2023-03-03T00:38:56;18.08;;;11.18;;
37997;SDS011;24079;51.824;4.682;2023-03-03T00:41:35;20.50;;;11.40;;
37997;SDS011;24079;51.824;4.682;2023-03-03T00:44:16;18.20;;;10.43;;
37997;SDS011;24079;51.824;4.682;2023-03-03T00:46:49;20.20;;;10.10;;
37997;SDS011;24079;51.824;4.682;2023-03-03T00:49:20;21.08;;;10.70;;
37997;SDS011;24079;51.824;4.682;2023-03-03T00:51:50;21.65;;;11.20;;
37997;SDS011;24079;51.824;4.682;2023-03-03T00:54:17;21.08;;;10.88;;
37997;SDS011;24079;51.824;4.682;2023-03-03T00:56:43;19.98;;;10.55;;
37997;SDS011;24079;51.824;4.682;2023-03-03T00:59:08;19.45;;;11.10;;
37997;SDS011;24079;51.824;4.682;2023-03-03T01:01:34;21.15;;;10.82;;
37997;SDS011;24079;51.824;4.682;2023-03-03T01:03:59;24.67;;;12.63;;
37997;SDS011;24079;51.824;4.682;2023-03-03T01:06:25;21.13;;;11.07;;
37997;SDS011;24079;51.824;4.682;2023-03-03T01:08:51;19.17;;;11.18;;
37997;SDS011;24079;51.824;4.682;2023-03-03T01:11:23;26.55;;;11.95;;
37997;SDS011;24079;51.824;4.682;2023-03-03T01:13:52;20.58;;;11.55;;
37997;SDS011;24079;51.824;4.682;2023-03-03T01:16:18;20.45;;;11.40;;
37997;SDS011;24079;51.824;4.682;2023-03-03T01:18:44;23.30;;;12.95;;
37997;SDS011;24079;51.824;4.682;2023-03-03T01:21:10;21.90;;;13.38;;
37997;SDS011;24079;51.824;4.682;2023-03-03T01:23:36;26.00;;;13.95;;
37997;SDS011;24079;51.824;4.682;2023-03-03T01:26:02;28.23;;;14.25;;
37997;SDS011;24079;51.824;4.682;2023-03-03T01:28:28;23.52;;;12.50;;
37997;SDS011;24079;51.824;4.682;2023-03-03T01:30:58;25.77;;;14.40;;
37997;SDS011;24079;51.824;4.682;2023-03-03T01:33:26;25.88;;;13.68;;
37997;SDS011;24079;51.824;4.682;2023-03-03T01:35:51;28.38;;;14.90;;
37997;SDS011;24079;51.824;4.682;2023-03-03T01:38:17;25.73;;;14.20;;
37997;SDS011;24079;51.824;4.682;2023-03-03T01:40:48;22.02;;;12.80;;
37997;SDS011;24079;51.824;4.682;2023-03-03T01:43:20;22.95;;;13.77;;
37997;SDS011;24079;51.824;4.682;2023-03-03T01:48:16;23.50;;;13.60;;
37997;SDS011;24079;51.824;4.682;2023-03-03T01:51:00;28.35;;;14.63;;
37997;SDS011;24079;51.824;4.682;2023-03-03T01:56:07;30.50;;;14.20;;
37997;SDS011;24079;51.824;4.682;2023-03-03T01:58:34;29.50;;;15.45;;
37997;SDS011;24079;51.824;4.682;2023-03-03T02:01:06;29.35;;;15.65;;
37997;SDS011;24079;51.824;4.682;2023-03-03T02:03:37;26.77;;;14.70;;
37997;SDS011;24079;51.824;4.682;2023-03-03T02:06:05;34.35;;;17.05;;
37997;SDS011;24079;51.824;4.682;2023-03-03T02:08:41;31.05;;;16.13;;
37997;SDS011;24079;51.824;4.682;2023-03-03T02:13:42;28.88;;;15.57;;
37997;SDS011;24079;51.824;4.682;2023-03-03T02:16:08;33.78;;;16.80;;
37997;SDS011;24079;51.824;4.682;2023-03-03T02:18:34;35.38;;;16.48;;
37997;SDS011;24079;51.824;4.682;2023-03-03T02:21:11;32.90;;;16.63;;
37997;SDS011;24079;51.824;4.682;2023-03-03T02:26:27;29.33;;;16.52;;
37997;SDS011;24079;51.824;4.682;2023-03-03T02:28:55;34.88;;;17.35;;
37997;SDS011;24079;51.824;4.682;2023-03-03T02:31:23;31.67;;;15.68;;
37997;SDS011;24079;51.824;4.682;2023-03-03T02:33:51;29.65;;;16.30;;
37997;SDS011;24079;51.824;4.682;2023-03-03T02:36:28;28.65;;;16.10;;
37997;SDS011;24079;51.824;4.682;2023-03-03T02:39:10;33.78;;;15.85;;
37997;SDS011;24079;51.824;4.682;2023-03-03T02:42:00;32.38;;;16.80;;
37997;SDS011;24079;51.824;4.682;2023-03-03T02:46:57;33.10;;;15.68;;
37997;SDS011;24079;51.824;4.682;2023-03-03T02:49:25;31.80;;;15.77;;
37997;SDS011;24079;51.824;4.682;2023-03-03T02:51:53;31.27;;;15.75;;
37997;SDS011;24079;51.824;4.682;2023-03-03T02:54:20;28.00;;;15.07;;
37997;SDS011;24079;51.824;4.682;2023-03-03T02:56:48;31.83;;;15.73;;
37997;SDS011;24079;51.824;4.682;2023-03-03T02:59:14;27.77;;;15.63;;
37997;SDS011;24079;51.824;4.682;2023-03-03T03:01:41;27.77;;;15.27;;
37997;SDS011;24079;51.824;4.682;2023-03-03T03:04:08;28.15;;;14.63;;
37997;SDS011;24079;51.824;4.682;2023-03-03T03:06:36;28.75;;;14.63;;
37997;SDS011;24079;51.824;4.682;2023-03-03T03:09:02;29.30;;;15.85;;
37997;SDS011;24079;51.824;4.682;2023-03-03T03:11:29;30.60;;;15.57;;
37997;SDS011;24079;51.824;4.682;2023-03-03T03:13:55;29.88;;;15.90;;
37997;SDS011;24079;51.824;4.682;2023-03-03T03:16:21;29.98;;;15.80;;
37997;SDS011;24079;51.824;4.682;2023-03-03T03:18:47;33.33;;;16.40;;
37997;SDS011;24079;51.824;4.682;2023-03-03T03:21:15;29.10;;;15.75;;
37997;SDS011;24079;51.824;4.682;2023-03-03T03:23:42;27.70;;;15.00;;
37997;SDS011;24079;51.824;4.682;2023-03-03T03:26:08;33.30;;;16.05;;
37997;SDS011;24079;51.824;4.682;2023-03-03T03:28:34;29.05;;;16.38;;
37997;SDS011;24079;51.824;4.682;2023-03-03T03:31:01;30.50;;;16.38;;
37997;SDS011;24079;51.824;4.682;2023-03-03T03:33:27;32.42;;;16.27;;
37997;SDS011;24079;51.824;4.682;2023-03-03T03:35:53;32.85;;;17.55;;
37997;SDS011;24079;51.824;4.682;2023-03-03T03:38:20;33.72;;;18.48;;
37997;SDS011;24079;51.824;4.682;2023-03-03T03:40:46;32.83;;;17.10;;
37997;SDS011;24079;51.824;4.682;2023-03-03T03:43:12;28.73;;;16.63;;
37997;SDS011;24079;51.824;4.682;2023-03-03T03:45:38;31.15;;;17.45;;
37997;SDS011;24079;51.824;4.682;2023-03-03T03:48:06;31.42;;;18.75;;
37997;SDS011;24079;51.824;4.682;2023-03-03T03:50:32;31.35;;;17.70;;
37997;SDS011;24079;51.824;4.682;2023-03-03T03:52:57;36.58;;;18.88;;
37997;SDS011;24079;51.824;4.682;2023-03-03T03:55:23;33.28;;;18.70;;
37997;SDS011;24079;51.824;4.682;2023-03-03T03:57:48;33.88;;;19.17;;
37997;SDS011;24079;51.824;4.682;2023-03-03T04:00:14;39.33;;;20.27;;
37997;SDS011;24079;51.824;4.682;2023-03-03T04:02:40;37.90;;;19.30;;
37997;SDS011;24079;51.824;4.682;2023-03-03T04:05:06;39.92;;;20.70;;
37997;SDS011;24079;51.824;4.682;2023-03-03T04:07:32;38.88;;;20.08;;
37997;SDS011;24079;51.824;4.682;2023-03-03T04:09:58;47.47;;;22.10;;
37997;SDS011;24079;51.824;4.682;2023-03-03T04:12:23;42.10;;;21.73;;
37997;SDS011;24079;51.824;4.682;2023-03-03T04:14:49;40.50;;;21.13;;
37997;SDS011;24079;51.824;4.682;2023-03-03T04:17:16;42.75;;;21.15;;
37997;SDS011;24079;51.824;4.682;2023-03-03T04:19:42;40.10;;;20.85;;
37997;SDS011;24079;51.824;4.682;2023-03-03T04:22:08;39.05;;;20.75;;
37997;SDS011;24079;51.824;4.682;2023-03-03T04:24:34;38.30;;;20.80;;
37997;SDS011;24079;51.824;4.682;2023-03-03T04:27:00;41.30;;;21.85;;
37997;SDS011;24079;51.824;4.682;2023-03-03T04:29:25;43.10;;;22.42;;
37997;SDS011;24079;51.824;4.682;2023-03-03T04:31:51;48.85;;;21.60;;
37997;SDS011;24079;51.824;4.682;2023-03-03T04:34:17;42.55;;;21.67;;
37997;SDS011;24079;51.824;4.682;2023-03-03T04:36:42;47.22;;;23.15;;
37997;SDS011;24079;51.824;4.682;2023-03-03T04:39:08;45.40;;;21.95;;
37997;SDS011;24079;51.824;4.682;2023-03-03T04:41:33;44.47;;;22.67;;
37997;SDS011;24079;51.824;4.682;2023-03-03T04:43:59;45.92;;;22.30;;
37997;SDS011;24079;51.824;4.682;2023-03-03T04:46:25;43.90;;;22.58;;
37997;SDS011;24079;51.824;4.682;2023-03-03T04:48:50;42.47;;;22.15;;
37997;SDS011;24079;51.824;4.682;2023-03-03T04:51:16;51.67;;;23.98;;
37997;SDS011;24079;51.824;4.682;2023-03-03T04:53:42;46.10;;;22.65;;
37997;SDS011;24079;51.824;4.682;2023-03-03T04:56:08;41.33;;;21.83;;
37997;SDS011;24079;51.824;4.682;2023-03-03T04:58:34;40.75;;;20.73;;
37997;SDS011;24079;51.824;4.682;2023-03-03T05:00:59;40.35;;;19.60;;
37997;SDS011;24079;51.824;4.682;2023-03-03T05:03:25;45.15;;;18.98;;
37997;SDS011;24079;51.824;4.682;2023-03-03T05:05:51;50.97;;;18.63;;
37997;SDS011;24079;51.824;4.682;2023-03-03T05:08:17;46.28;;;17.77;;
37997;SDS011;24079;51.824;4.682;2023-03-03T05:10:43;36.92;;;18.25;;
37997;SDS011;24079;51.824;4.682;2023-03-03T05:13:09;38.30;;;18.35;;
37997;SDS011;24079;51.824;4.682;2023-03-03T05:15:34;48.38;;;18.92;;
37997;SDS011;24079;51.824;4.682;2023-03-03T05:18:00;38.67;;;17.42;;
37997;SDS011;24079;51.824;4.682;2023-03-03T05:20:26;40.17;;;18.08;;
37997;SDS011;24079;51.824;4.682;2023-03-03T05:22:52;42.38;;;18.70;;
37997;SDS011;24079;51.824;4.682;2023-03-03T05:25:20;49.95;;;19.52;;
37997;SDS011;24079;51.824;4.682;2023-03-03T05:27:46;38.15;;;18.48;;
37997;SDS011;24079;51.824;4.682;2023-03-03T05:30:11;52.85;;;19.05;;
37997;SDS011;24079;51.824;4.682;2023-03-03T05:32:37;38.63;;;18.42;;
37997;SDS011;24079;51.824;4.682;2023-03-03T05:35:03;37.85;;;18.98;;
37997;SDS011;24079;51.824;4.682;2023-03-03T05:37:29;41.25;;;20.10;;
37997;SDS011;24079;51.824;4.682;2023-03-03T05:39:55;45.95;;;20.00;;
37997;SDS011;24079;51.824;4.682;2023-03-03T05:42:21;51.33;;;19.60;;
37997;SDS011;24079;51.824;4.682;2023-03-03T05:44:46;47.13;;;19.65;;
37997;SDS011;24079;51.824;4.682;2023-03-03T05:47:12;47.20;;;19.85;;
37997;SDS011;24079;51.824;4.682;2023-03-03T05:49:38;51.65;;;21.77;;
37997;SDS011;24079;51.824;4.682;2023-03-03T05:52:03;57.47;;;21.50;;
37997;SDS011;24079;51.824;4.682;2023-03-03T05:54:30;46.00;;;21.88;;
37997;SDS011;24079;51.824;4.682;2023-03-03T05:56:56;53.78;;;21.02;;
37997;SDS011;24079;51.824;4.682;2023-03-03T05:59:22;47.97;;;21.90;;
37997;SDS011;24079;51.824;4.682;2023-03-03T06:01:48;50.13;;;22.35;;
37997;SDS011;24079;51.824;4.682;2023-03-03T06:04:14;50.40;;;20.27;;
37997;SDS011;24079;51.824;4.682;2023-03-03T06:06:40;51.35;;;22.35;;
37997;SDS011;24079;51.824;4.682;2023-03-03T06:09:05;57.92;;;22.00;;
37997;SDS011;24079;51.824;4.682;2023-03-03T06:11:31;53.03;;;22.63;;
37997;SDS011;24079;51.824;4.682;2023-03-03T06:13:57;65.38;;;22.98;;
37997;SDS011;24079;51.824;4.682;2023-03-03T06:16:22;50.63;;;22.40;;
37997;SDS011;24079;51.824;4.682;2023-03-03T06:18:48;51.90;;;21.58;;
37997;SDS011;24079;51.824;4.682;2023-03-03T06:21:13;55.78;;;23.83;;
37997;SDS011;24079;51.824;4.682;2023-03-03T06:23:39;55.28;;;23.13;;
37997;SDS011;24079;51.824;4.682;2023-03-03T06:27:42;74.18;;;21.80;;
37997;SDS011;24079;51.824;4.682;2023-03-03T06:30:08;63.75;;;23.27;;
37997;SDS011;24079;51.824;4.682;2023-03-03T06:32:34;56.75;;;22.92;;
37997;SDS011;24079;51.824;4.682;2023-03-03T06:34:59;56.00;;;23.70;;
37997;SDS011;24079;51.824;4.682;2023-03-03T06:37:25;58.65;;;23.48;;
37997;SDS011;24079;51.824;4.682;2023-03-03T06:39:51;47.05;;;20.95;;
37997;SDS011;24079;51.824;4.682;2023-03-03T06:42:17;57.65;;;23.83;;
37997;SDS011;24079;51.824;4.682;2023-03-03T06:44:43;49.75;;;22.13;;
37997;SDS011;24079;51.824;4.682;2023-03-03T06:47:09;52.70;;;22.35;;
37997;SDS011;24079;51.824;4.682;2023-03-03T06:49:35;49.28;;;21.67;;
37997;SDS011;24079;51.824;4.682;2023-03-03T06:52:01;51.97;;;21.73;;
37997;SDS011;24079;51.824;4.682;2023-03-03T06:54:35;50.72;;;21.58;;
37997;SDS011;24079;51.824;4.682;2023-03-03T06:57:03;49.33;;;22.02;;
37997;SDS011;24079;51.824;4.682;2023-03-03T06:59:39;56.70;;;21.27;;
37997;SDS011;24079;51.824;4.682;2023-03-03T07:02:09;52.70;;;23.30;;
37997;SDS011;24079;51.824;4.682;2023-03-03T07:04:39;49.33;;;21.75;;
37997;SDS011;24079;51.824;4.682;2023-03-03T07:07:22;52.85;;;22.70;;
37997;SDS011;24079;51.824;4.682;2023-03-03T07:09:50;55.42;;;23.70;;
37997;SDS011;24079;51.824;4.682;2023-03-03T07:12:18;56.38;;;24.15;;
37997;SDS011;24079;51.824;4.682;2023-03-03T07:14:51;60.10;;;22.55;;
37997;SDS011;24079;51.824;4.682;2023-03-03T07:17:22;59.13;;;24.83;;
37997;SDS011;24079;51.824;4.682;2023-03-03T07:19:49;56.13;;;23.35;;
37997;SDS011;24079;51.824;4.682;2023-03-03T07:22:16;53.65;;;23.38;;
37997;SDS011;24079;51.824;4.682;2023-03-03T07:24:49;51.40;;;23.58;;
37997;SDS011;24079;51.824;4.682;2023-03-03T07:27:23;55.88;;;23.85;;
37997;SDS011;24079;51.824;4.682;2023-03-03T07:29:52;59.45;;;25.98;;
37997;SDS011;24079;51.824;4.682;2023-03-03T07:32:39;53.65;;;22.15;;
37997;SDS011;24079;51.824;4.682;2023-03-03T07:38:02;56.53;;;25.33;;
37997;SDS011;24079;51.824;4.682;2023-03-03T07:40:38;55.65;;;23.65;;
37997;SDS011;24079;51.824;4.682;2023-03-03T07:45:56;54.10;;;22.52;;
37997;SDS011;24079;51.824;4.682;2023-03-03T07:48:41;52.08;;;22.45;;
37997;SDS011;24079;51.824;4.682;2023-03-03T07:51:12;53.75;;;23.33;;
37997;SDS011;24079;51.824;4.682;2023-03-03T07:53:46;50.63;;;22.38;;
37997;SDS011;24079;51.824;4.682;2023-03-03T07:56:26;52.05;;;22.42;;
37997;SDS011;24079;51.824;4.682;2023-03-03T07:58:58;51.72;;;21.80;;
37997;SDS011;24079;51.824;4.682;2023-03-03T08:04:37;46.55;;;21.52;;
37997;SDS011;24079;51.824;4.682;2023-03-03T08:07:08;54.40;;;23.17;;
37997;SDS011;24079;51.824;4.682;2023-03-03T08:09:40;51.88;;;22.67;;
37997;SDS011;24079;51.824;4.682;2023-03-03T08:12:14;53.25;;;23.00;;
37997;SDS011;24079;51.824;4.682;2023-03-03T08:14:49;42.15;;;20.08;;
37997;SDS011;24079;51.824;4.682;2023-03-03T08:17:18;55.08;;;22.08;;
37997;SDS011;24079;51.824;4.682;2023-03-03T08:19:46;55.60;;;22.67;;
37997;SDS011;24079;51.824;4.682;2023-03-03T08:24:59;59.38;;;24.73;;
37997;SDS011;24079;51.824;4.682;2023-03-03T08:27:25;39.95;;;18.75;;
37997;SDS011;24079;51.824;4.682;2023-03-03T08:29:50;39.70;;;17.23;;
37997;SDS011;24079;51.824;4.682;2023-03-03T08:32:16;31.63;;;15.63;;
37997;SDS011;24079;51.824;4.682;2023-03-03T08:34:42;35.67;;;16.05;;
37997;SDS011;24079;51.824;4.682;2023-03-03T08:37:07;34.88;;;16.52;;
37997;SDS011;24079;51.824;4.682;2023-03-03T08:39:33;33.13;;;15.55;;
37997;SDS011;24079;51.824;4.682;2023-03-03T08:41:59;36.05;;;17.35;;
37997;SDS011;24079;51.824;4.682;2023-03-03T08:44:25;33.70;;;15.20;;
37997;SDS011;24079;51.824;4.682;2023-03-03T08:46:50;32.58;;;15.57;;
37997;SDS011;24079;51.824;4.682;2023-03-03T08:49:16;34.33;;;15.10;;
37997;SDS011;24079;51.824;4.682;2023-03-03T08:51:42;28.20;;;13.65;;
37997;SDS011;24079;51.824;4.682;2023-03-03T08:54:08;25.73;;;12.98;;
37997;SDS011;24079;51.824;4.682;2023-03-03T08:56:33;26.00;;;12.05;;
37997;SDS011;24079;51.824;4.682;2023-03-03T08:58:59;26.25;;;12.68;;
37997;SDS011;24079;51.824;4.682;2023-03-03T09:01:24;25.02;;;12.00;;
37997;SDS011;24079;51.824;4.682;2023-03-03T09:03:50;27.52;;;13.35;;
37997;SDS011;24079;51.824;4.682;2023-03-03T09:06:16;28.20;;;13.10;;
37997;SDS011;24079;51.824;4.682;2023-03-03T09:08:41;25.33;;;12.30;;
37997;SDS011;24079;51.824;4.682;2023-03-03T09:11:13;25.10;;;12.77;;
37997;SDS011;24079;51.824;4.682;2023-03-03T09:13:43;26.25;;;13.13;;
37997;SDS011;24079;51.824;4.682;2023-03-03T09:16:13;25.85;;;11.70;;
37997;SDS011;24079;51.824;4.682;2023-03-03T09:18:39;25.77;;;12.55;;
37997;SDS011;24079;51.824;4.682;2023-03-03T09:21:25;27.30;;;13.23;;
37997;SDS011;24079;51.824;4.682;2023-03-03T09:23:59;28.98;;;13.15;;
37997;SDS011;24079;51.824;4.682;2023-03-03T09:34:23;22.48;;;12.07;;
37997;SDS011;24079;51.824;4.682;2023-03-03T09:36:52;24.27;;;12.00;;
37997;SDS011;24079;51.824;4.682;2023-03-03T09:39:20;24.17;;;12.15;;
37997;SDS011;24079;51.824;4.682;2023-03-03T09:44:55;24.13;;;11.98;;
37997;SDS011;24079;51.824;4.682;2023-03-03T09:47:33;24.35;;;12.25;;
37997;SDS011;24079;51.824;4.682;2023-03-03T10:03:37;23.08;;;10.40;;
37997;SDS011;24079;51.824;4.682;2023-03-03T10:06:21;20.75;;;10.02;;
37997;SDS011;24079;51.824;4.682;2023-03-03T10:09:08;23.35;;;9.43;;
37997;SDS011;24079;51.824;4.682;2023-03-03T10:17:50;19.30;;;8.93;;
37997;SDS011;24079;51.824;4.682;2023-03-03T10:25:56;19.05;;;8.15;;
37997;SDS011;24079;51.824;4.682;2023-03-03T10:31:53;19.13;;;9.30;;
37997;SDS011;24079;51.824;4.682;2023-03-03T10:40:32;16.63;;;8.40;;
37997;SDS011;24079;51.824;4.682;2023-03-03T10:48:45;17.10;;;8.48;;
37997;SDS011;24079;51.824;4.682;2023-03-03T10:51:43;17.17;;;7.68;;
37997;SDS011;24079;51.824;4.682;2023-03-03T10:54:23;13.75;;;6.78;;
37997;SDS011;24079;51.824;4.682;2023-03-03T11:02:46;18.42;;;6.63;;
37997;SDS011;24079;51.824;4.682;2023-03-03T11:08:19;12.48;;;7.00;;
37997;SDS011;24079;51.824;4.682;2023-03-03T11:14:18;11.13;;;6.07;;
37997;SDS011;24079;51.824;4.682;2023-03-03T11:19:47;15.35;;;6.07;;
37997;SDS011;24079;51.824;4.682;2023-03-03T11:28:37;10.73;;;5.55;;
37997;SDS011;24079;51.824;4.682;2023-03-03T11:36:38;14.52;;;5.43;;
37997;SDS011;24079;51.824;4.682;2023-03-03T11:39:19;13.02;;;4.90;;
37997;SDS011;24079;51.824;4.682;2023-03-03T11:44:36;10.90;;;5.15;;
37997;SDS011;24079;51.824;4.682;2023-03-03T11:49:51;10.10;;;5.05;;
37997;SDS011;24079;51.824;4.682;2023-03-03T11:52:46;12.68;;;5.30;;
37997;SDS011;24079;51.824;4.682;2023-03-03T11:55:26;10.32;;;4.60;;
37997;SDS011;24079;51.824;4.682;2023-03-03T12:03:30;13.10;;;5.20;;
37997;SDS011;24079;51.824;4.682;2023-03-03T12:13:55;10.75;;;4.47;;
37997;SDS011;24079;51.824;4.682;2023-03-03T12:24:29;8.93;;;3.08;;
37997;SDS011;24079;51.824;4.682;2023-03-03T12:27:25;6.28;;;3.00;;
37997;SDS011;24079;51.824;4.682;2023-03-03T12:35:30;6.85;;;2.97;;
37997;SDS011;24079;51.824;4.682;2023-03-03T12:40:34;5.80;;;2.60;;
37997;SDS011;24079;51.824;4.682;2023-03-03T12:43:38;5.80;;;3.10;;
37997;SDS011;24079;51.824;4.682;2023-03-03T12:46:12;4.60;;;2.53;;
37997;SDS011;24079;51.824;4.682;2023-03-03T12:48:44;6.20;;;3.15;;
37997;SDS011;24079;51.824;4.682;2023-03-03T13:05:43;5.93;;;2.20;;
37997;SDS011;24079;51.824;4.682;2023-03-03T13:16:03;8.43;;;1.90;;
37997;SDS011;24079;51.824;4.682;2023-03-03T13:21:26;5.20;;;2.20;;
37997;SDS011;24079;51.824;4.682;2023-03-03T13:27:06;5.43;;;2.30;;
37997;SDS011;24079;51.824;4.682;2023-03-03T13:30:21;4.43;;;1.88;;
37997;SDS011;24079;51.824;4.682;2023-03-03T13:32:28;9.30;;;1.67;;
37997;SDS011;24079;51.824;4.682;2023-03-03T13:37:51;6.85;;;2.22;;
37997;SDS011;24079;51.824;4.682;2023-03-03T13:40:21;4.13;;;2.28;;
37997;SDS011;24079;51.824;4.682;2023-03-03T13:43:18;7.43;;;2.03;;
37997;SDS011;24079;51.824;4.682;2023-03-03T13:46:06;3.13;;;1.90;;
37997;SDS011;24079;51.824;4.682;2023-03-03T13:51:50;5.07;;;2.03;;
37997;SDS011;24079;51.824;4.682;2023-03-03T13:54:17;4.70;;;2.00;;
37997;SDS011;24079;51.824;4.682;2023-03-03T14:05:15;4.73;;;2.33;;
37997;SDS011;24079;51.824;4.682;2023-03-03T14:07:51;6.72;;;2.25;;
37997;SDS011;24079;51.824;4.682;2023-03-03T14:13:01;9.65;;;1.80;;
37997;SDS011;24079;51.824;4.682;2023-03-03T14:15:44;7.60;;;2.15;;
37997;SDS011;24079;51.824;4.682;2023-03-03T14:18:28;5.07;;;2.42;;
37997;SDS011;24079;51.824;4.682;2023-03-03T14:21:00;12.20;;;1.60;;
37997;SDS011;24079;51.824;4.682;2023-03-03T14:26:23;3.38;;;1.20;;
37997;SDS011;24079;51.824;4.682;2023-03-03T14:28:49;7.32;;;1.98;;
37997;SDS011;24079;51.824;4.682;2023-03-03T14:33:55;4.55;;;1.77;;
37997;SDS011;24079;51.824;4.682;2023-03-03T14:36:27;4.78;;;2.15;;
37997;SDS011;24079;51.824;4.682;2023-03-03T14:38:59;24.00;;;8.18;;
37997;SDS011;24079;51.824;4.682;2023-03-03T14:41:43;7.68;;;2.55;;
37997;SDS011;24079;51.824;4.682;2023-03-03T14:49:36;10.63;;;4.15;;
37997;SDS011;24079;51.824;4.682;2023-03-03T14:54:39;4.32;;;1.75;;
37997;SDS011;24079;51.824;4.682;2023-03-03T14:59:57;4.95;;;2.20;;
37997;SDS011;24079;51.824;4.682;2023-03-03T15:05:17;5.00;;;1.70;;
37997;SDS011;24079;51.824;4.682;2023-03-03T15:07:58;11.38;;;2.15;;
37997;SDS011;24079;51.824;4.682;2023-03-03T15:10:37;3.92;;;1.40;;
37997;SDS011;24079;51.824;4.682;2023-03-03T15:13:53;6.05;;;1.77;;
37997;SDS011;24079;51.824;4.682;2023-03-03T15:18:25;6.28;;;2.03;;
37997;SDS011;24079;51.824;4.682;2023-03-03T15:29:19;5.68;;;2.20;;
37997;SDS011;24079;51.824;4.682;2023-03-03T15:34:38;3.72;;;1.70;;
37997;SDS011;24079;51.824;4.682;2023-03-03T15:43:31;4.50;;;1.90;;
37997;SDS011;24079;51.824;4.682;2023-03-03T15:51:43;9.18;;;2.72;;
37997;SDS011;24079;51.824;4.682;2023-03-03T16:05:03;10.10;;;4.22;;
37997;SDS011;24079;51.824;4.682;2023-03-03T16:10:43;9.05;;;2.78;;
37997;SDS011;24079;51.824;4.682;2023-03-03T16:13:22;11.13;;;4.30;;
37997;SDS011;24079;51.824;4.682;2023-03-03T16:18:41;12.20;;;2.20;;
37997;SDS011;24079;51.824;4.682;2023-03-03T16:29:55;8.77;;;2.67;;
37997;SDS011;24079;51.824;4.682;2023-03-03T16:32:29;8.27;;;2.85;;
37997;SDS011;24079;51.824;4.682;2023-03-03T16:37:57;5.82;;;2.10;;
37997;SDS011;24079;51.824;4.682;2023-03-03T16:40:37;5.45;;;2.20;;
37997;SDS011;24079;51.824;4.682;2023-03-03T16:46:00;10.15;;;3.08;;
37997;SDS011;24079;51.824;4.682;2023-03-03T16:48:44;15.05;;;4.18;;
37997;SDS011;24079;51.824;4.682;2023-03-03T16:54:15;19.90;;;5.78;;
37997;SDS011;24079;51.824;4.682;2023-03-03T16:57:01;13.70;;;4.20;;
37997;SDS011;24079;51.824;4.682;2023-03-03T17:02:19;10.93;;;3.67;;
37997;SDS011;24079;51.824;4.682;2023-03-03T17:05:32;14.85;;;5.25;;
37997;SDS011;24079;51.824;4.682;2023-03-03T17:08:02;9.43;;;4.10;;
37997;SDS011;24079;51.824;4.682;2023-03-03T17:10:36;5.88;;;3.80;;
37997;SDS011;24079;51.824;4.682;2023-03-03T17:15:55;9.35;;;4.35;;
37997;SDS011;24079;51.824;4.682;2023-03-03T17:25:07;9.93;;;3.10;;
37997;SDS011;24079;51.824;4.682;2023-03-03T17:27:33;8.13;;;3.35;;
37997;SDS011;24079;51.824;4.682;2023-03-03T17:35:50;6.55;;;2.80;;
37997;SDS011;24079;51.824;4.682;2023-03-03T17:41:20;11.25;;;4.20;;
37997;SDS011;24079;51.824;4.682;2023-03-03T17:43:58;5.82;;;2.83;;
37997;SDS011;24079;51.824;4.682;2023-03-03T17:46:36;11.82;;;4.93;;
37997;SDS011;24079;51.824;4.682;2023-03-03T17:49:20;14.82;;;5.80;;
37997;SDS011;24079;51.824;4.682;2023-03-03T18:05:42;12.38;;;2.78;;
37997;SDS011;24079;51.824;4.682;2023-03-03T18:16:21;13.63;;;4.65;;
37997;SDS011;24079;51.824;4.682;2023-03-03T18:21:55;14.55;;;3.20;;
37997;SDS011;24079;51.824;4.682;2023-03-03T18:26:54;10.13;;;2.80;;
37997;SDS011;24079;51.824;4.682;2023-03-03T18:29:26;15.90;;;3.65;;
37997;SDS011;24079;51.824;4.682;2023-03-03T18:34:33;14.15;;;5.53;;
37997;SDS011;24079;51.824;4.682;2023-03-03T18:37:06;13.35;;;3.33;;
37997;SDS011;24079;51.824;4.682;2023-03-03T18:42:37;14.25;;;2.67;;
37997;SDS011;24079;51.824;4.682;2023-03-03T18:45:46;16.52;;;3.30;;
37997;SDS011;24079;51.824;4.682;2023-03-03T18:50:53;20.02;;;3.35;;
37997;SDS011;24079;51.824;4.682;2023-03-03T18:53:28;16.00;;;4.05;;
37997;SDS011;24079;51.824;4.682;2023-03-03T18:55:59;21.92;;;4.55;;
37997;SDS011;24079;51.824;4.682;2023-03-03T19:06:28;23.60;;;3.80;;
37997;SDS011;24079;51.824;4.682;2023-03-03T19:09:00;22.98;;;3.90;;
37997;SDS011;24079;51.824;4.682;2023-03-03T19:11:41;24.00;;;4.65;;
37997;SDS011;24079;51.824;4.682;2023-03-03T19:16:58;20.38;;;3.95;;
37997;SDS011;24079;51.824;4.682;2023-03-03T19:23:20;27.17;;;5.43;;
37997;SDS011;24079;51.824;4.682;2023-03-03T19:25:29;23.83;;;6.85;;
37997;SDS011;24079;51.824;4.682;2023-03-03T19:36:04;26.33;;;4.63;;
37997;SDS011;24079;51.824;4.682;2023-03-03T19:46:57;23.50;;;5.55;;
37997;SDS011;24079;51.824;4.682;2023-03-03T19:52:15;25.90;;;4.82;;
37997;SDS011;24079;51.824;4.682;2023-03-03T19:54:57;31.88;;;6.55;;
37997;SDS011;24079;51.824;4.682;2023-03-03T20:06:44;27.80;;;5.85;;
37997;SDS011;24079;51.824;4.682;2023-03-03T20:12:15;18.88;;;5.22;;
37997;SDS011;24079;51.824;4.682;2023-03-03T20:14:47;24.00;;;5.40;;
37997;SDS011;24079;51.824;4.682;2023-03-03T20:22:32;24.67;;;5.82;;
37997;SDS011;24079;51.824;4.682;2023-03-03T20:33:31;23.70;;;6.13;;
37997;SDS011;24079;51.824;4.682;2023-03-03T20:36:39;23.25;;;5.07;;
37997;SDS011;24079;51.824;4.682;2023-03-03T20:39:19;28.40;;;5.47;;
37997;SDS011;24079;51.824;4.682;2023-03-03T20:48:03;28.40;;;5.47;;
37997;SDS011;24079;51.824;4.682;2023-03-03T20:51:02;24.45;;;4.25;;
37997;SDS011;24079;51.824;4.682;2023-03-03T20:53:50;29.02;;;5.45;;
37997;SDS011;24079;51.824;4.682;2023-03-03T20:56:48;19.95;;;4.53;;
37997;SDS011;24079;51.824;4.682;2023-03-03T20:59:23;22.20;;;4.90;;
37997;SDS011;24079;51.824;4.682;2023-03-03T21:04:43;23.08;;;4.93;;
37997;SDS011;24079;51.824;4.682;2023-03-03T21:07:12;16.65;;;4.28;;
37997;SDS011;24079;51.824;4.682;2023-03-03T21:09:48;27.80;;;4.72;;
37997;SDS011;24079;51.824;4.682;2023-03-03T21:12:27;25.38;;;4.93;;
37997;SDS011;24079;51.824;4.682;2023-03-03T21:15:01;23.63;;;4.75;;
37997;SDS011;24079;51.824;4.682;2023-03-03T21:17:29;25.52;;;4.45;;
37997;SDS011;24079;51.824;4.682;2023-03-03T21:20:05;26.88;;;4.50;;